sensor_id;sensor_type;location;lat;lon;timestamp;P1;durP1;ratioP1;P2;durP2;ratioP2
1839;SDS011;920;48.944;9.148;2024-01-27T00:00:22;5.07;;;3.10;;
1839;SDS011;920;48.944;9.148;2024-01-27T00:02:49;4.77;;;3.20;;
1839;SDS011;920;48.944;9.148;2024-01-27T00:05:16;6.07;;;3.53;;
1839;SDS011;920;48.944;9.148;2024-01-27T00:07:45;5.77;;;3.70;;
1839;SDS011;920;48.944;9.148;2024-01-27T00:10:12;6.90;;;3.60;;
1839;SDS011;920;48.944;9.148;2024-01-27T00:12:39;7.00;;;3.93;;
1839;SDS011;920;48.944;9.148;2024-01-27T00:15:07;6.87;;;4.20;;
1839;SDS011;920;48.944;9.148;2024-01-27T00:17:34;5.87;;;3.80;;
1839;SDS011;920;48.944;9.148;2024-01-27T00:20:01;6.47;;;3.80;;
1839;SDS011;920;48.944;9.148;2024-01-27T00:22:28;6.30;;;3.40;;
1839;SDS011;920;48.944;9.148;2024-01-27T00:24:56;4.87;;;3.53;;
1839;SDS011;920;48.944;9.148;2024-01-27T00:27:26;7.30;;;3.90;;
1839;SDS011;920;48.944;9.148;2024-01-27T00:29:53;5.40;;;3.33;;
1839;SDS011;920;48.944;9.148;2024-01-27T00:32:20;5.00;;;3.10;;
1839;SDS011;920;48.944;9.148;2024-01-27T00:34:47;6.07;;;3.63;;
1839;SDS011;920;48.944;9.148;2024-01-27T00:37:14;4.90;;;3.50;;
1839;SDS011;920;48.944;9.148;2024-01-27T00:39:41;4.97;;;2.90;;
1839;SDS011;920;48.944;9.148;2024-01-27T00:42:09;5.30;;;3.00;;
1839;SDS011;920;48.944;9.148;2024-01-27T00:44:36;4.60;;;2.73;;
1839;SDS011;920;48.944;9.148;2024-01-27T00:47:03;5.00;;;3.10;;
1839;SDS011;920;48.944;9.148;2024-01-27T00:49:30;4.40;;;2.70;;
1839;SDS011;920;48.944;9.148;2024-01-27T00:51:56;4.83;;;2.90;;
1839;SDS011;920;48.944;9.148;2024-01-27T00:54:23;5.63;;;3.50;;
1839;SDS011;920;48.944;9.148;2024-01-27T00:56:51;6.30;;;3.13;;
1839;SDS011;920;48.944;9.148;2024-01-27T00:59:19;9.30;;;3.60;;
1839;SDS011;920;48.944;9.148;2024-01-27T01:01:46;5.27;;;3.37;;
1839;SDS011;920;48.944;9.148;2024-01-27T01:04:13;3.93;;;3.20;;
1839;SDS011;920;48.944;9.148;2024-01-27T01:06:39;5.20;;;3.20;;
1839;SDS011;920;48.944;9.148;2024-01-27T01:09:06;5.30;;;3.90;;
1839;SDS011;920;48.944;9.148;2024-01-27T01:11:33;7.63;;;4.63;;
1839;SDS011;920;48.944;9.148;2024-01-27T01:14:00;6.90;;;4.50;;
1839;SDS011;920;48.944;9.148;2024-01-27T01:16:29;6.40;;;4.60;;
1839;SDS011;920;48.944;9.148;2024-01-27T01:18:55;9.03;;;4.30;;
1839;SDS011;920;48.944;9.148;2024-01-27T01:21:22;5.60;;;4.07;;
1839;SDS011;920;48.944;9.148;2024-01-27T01:23:49;5.90;;;4.50;;
1839;SDS011;920;48.944;9.148;2024-01-27T01:26:16;7.37;;;4.67;;
1839;SDS011;920;48.944;9.148;2024-01-27T01:28:43;6.67;;;4.80;;
1839;SDS011;920;48.944;9.148;2024-01-27T01:31:09;8.13;;;4.67;;
1839;SDS011;920;48.944;9.148;2024-01-27T01:33:38;8.17;;;5.10;;
1839;SDS011;920;48.944;9.148;2024-01-27T01:36:05;7.27;;;4.73;;
1839;SDS011;920;48.944;9.148;2024-01-27T01:38:31;5.90;;;4.27;;
1839;SDS011;920;48.944;9.148;2024-01-27T01:40:58;7.27;;;4.50;;
1839;SDS011;920;48.944;9.148;2024-01-27T01:43:25;6.07;;;4.73;;
1839;SDS011;920;48.944;9.148;2024-01-27T01:45:52;5.93;;;4.40;;
1839;SDS011;920;48.944;9.148;2024-01-27T01:48:19;9.60;;;4.60;;
1839;SDS011;920;48.944;9.148;2024-01-27T01:50:48;5.83;;;4.30;;
1839;SDS011;920;48.944;9.148;2024-01-27T01:53:16;8.10;;;4.53;;
1839;SDS011;920;48.944;9.148;2024-01-27T01:55:42;7.17;;;4.13;;
1839;SDS011;920;48.944;9.148;2024-01-27T01:58:11;7.37;;;4.27;;
1839;SDS011;920;48.944;9.148;2024-01-27T02:00:38;6.80;;;4.33;;
1839;SDS011;920;48.944;9.148;2024-01-27T02:03:05;7.20;;;4.40;;
1839;SDS011;920;48.944;9.148;2024-01-27T02:05:36;6.27;;;4.37;;
1839;SDS011;920;48.944;9.148;2024-01-27T02:08:05;7.90;;;4.07;;
1839;SDS011;920;48.944;9.148;2024-01-27T02:10:33;5.70;;;4.47;;
1839;SDS011;920;48.944;9.148;2024-01-27T02:13:03;8.17;;;4.77;;
1839;SDS011;920;48.944;9.148;2024-01-27T02:15:30;7.07;;;4.60;;
1839;SDS011;920;48.944;9.148;2024-01-27T02:17:57;8.27;;;4.80;;
1839;SDS011;920;48.944;9.148;2024-01-27T02:20:24;7.03;;;4.17;;
1839;SDS011;920;48.944;9.148;2024-01-27T02:22:51;8.10;;;4.43;;
1839;SDS011;920;48.944;9.148;2024-01-27T02:25:19;5.13;;;3.77;;
1839;SDS011;920;48.944;9.148;2024-01-27T02:27:46;6.60;;;4.30;;
1839;SDS011;920;48.944;9.148;2024-01-27T02:30:13;7.10;;;4.47;;
1839;SDS011;920;48.944;9.148;2024-01-27T02:32:40;5.73;;;3.83;;
1839;SDS011;920;48.944;9.148;2024-01-27T02:35:08;6.60;;;4.33;;
1839;SDS011;920;48.944;9.148;2024-01-27T02:37:35;7.17;;;3.80;;
1839;SDS011;920;48.944;9.148;2024-01-27T02:40:01;6.30;;;4.10;;
1839;SDS011;920;48.944;9.148;2024-01-27T02:42:30;5.90;;;4.03;;
1839;SDS011;920;48.944;9.148;2024-01-27T02:44:56;6.17;;;3.83;;
1839;SDS011;920;48.944;9.148;2024-01-27T02:47:23;7.47;;;4.17;;
1839;SDS011;920;48.944;9.148;2024-01-27T02:49:50;5.67;;;4.10;;
1839;SDS011;920;48.944;9.148;2024-01-27T02:52:17;7.03;;;4.17;;
1839;SDS011;920;48.944;9.148;2024-01-27T02:54:43;6.57;;;3.93;;
1839;SDS011;920;48.944;9.148;2024-01-27T02:57:10;5.10;;;3.70;;
1839;SDS011;920;48.944;9.148;2024-01-27T02:59:39;4.77;;;3.47;;
1839;SDS011;920;48.944;9.148;2024-01-27T03:02:06;5.33;;;3.53;;
1839;SDS011;920;48.944;9.148;2024-01-27T03:04:33;6.63;;;3.70;;
1839;SDS011;920;48.944;9.148;2024-01-27T03:07:00;5.90;;;3.40;;
1839;SDS011;920;48.944;9.148;2024-01-27T03:09:27;6.23;;;3.80;;
1839;SDS011;920;48.944;9.148;2024-01-27T03:11:53;6.50;;;3.30;;
1839;SDS011;920;48.944;9.148;2024-01-27T03:14:20;5.60;;;3.23;;
1839;SDS011;920;48.944;9.148;2024-01-27T03:16:49;7.03;;;4.07;;
1839;SDS011;920;48.944;9.148;2024-01-27T03:19:16;5.57;;;3.33;;
1839;SDS011;920;48.944;9.148;2024-01-27T03:21:43;4.27;;;2.97;;
1839;SDS011;920;48.944;9.148;2024-01-27T03:24:10;4.70;;;3.33;;
1839;SDS011;920;48.944;9.148;2024-01-27T03:26:36;6.23;;;3.47;;
1839;SDS011;920;48.944;9.148;2024-01-27T03:29:03;6.73;;;3.50;;
1839;SDS011;920;48.944;9.148;2024-01-27T03:31:30;5.50;;;3.30;;
1839;SDS011;920;48.944;9.148;2024-01-27T03:33:59;5.00;;;3.23;;
1839;SDS011;920;48.944;9.148;2024-01-27T03:36:26;5.67;;;3.40;;
1839;SDS011;920;48.944;9.148;2024-01-27T03:38:53;5.93;;;3.10;;
1839;SDS011;920;48.944;9.148;2024-01-27T03:41:20;6.43;;;3.33;;
1839;SDS011;920;48.944;9.148;2024-01-27T03:43:47;5.53;;;3.40;;
1839;SDS011;920;48.944;9.148;2024-01-27T03:46:14;7.80;;;3.97;;
1839;SDS011;920;48.944;9.148;2024-01-27T03:48:41;4.73;;;3.20;;
1839;SDS011;920;48.944;9.148;2024-01-27T03:51:09;4.93;;;3.57;;
1839;SDS011;920;48.944;9.148;2024-01-27T03:53:36;5.13;;;2.90;;
1839;SDS011;920;48.944;9.148;2024-01-27T03:56:03;4.20;;;3.43;;
1839;SDS011;920;48.944;9.148;2024-01-27T03:58:31;7.93;;;3.67;;
1839;SDS011;920;48.944;9.148;2024-01-27T04:00:58;5.03;;;3.00;;
1839;SDS011;920;48.944;9.148;2024-01-27T04:03:25;6.60;;;3.53;;
1839;SDS011;920;48.944;9.148;2024-01-27T04:05:52;6.83;;;3.70;;
1839;SDS011;920;48.944;9.148;2024-01-27T04:08:20;5.10;;;3.40;;
1839;SDS011;920;48.944;9.148;2024-01-27T04:10:47;6.40;;;3.80;;
1839;SDS011;920;48.944;9.148;2024-01-27T04:13:14;6.40;;;3.70;;
1839;SDS011;920;48.944;9.148;2024-01-27T04:15:41;5.67;;;4.10;;
1839;SDS011;920;48.944;9.148;2024-01-27T04:18:07;8.67;;;4.13;;
1839;SDS011;920;48.944;9.148;2024-01-27T04:20:36;14.13;;;4.20;;
1839;SDS011;920;48.944;9.148;2024-01-27T04:23:03;5.23;;;3.53;;
1839;SDS011;920;48.944;9.148;2024-01-27T04:25:31;6.23;;;4.30;;
1839;SDS011;920;48.944;9.148;2024-01-27T04:27:58;4.30;;;3.23;;
1839;SDS011;920;48.944;9.148;2024-01-27T04:30:25;7.83;;;4.40;;
1839;SDS011;920;48.944;9.148;2024-01-27T04:32:52;6.30;;;3.93;;
1839;SDS011;920;48.944;9.148;2024-01-27T04:35:18;5.87;;;3.70;;
1839;SDS011;920;48.944;9.148;2024-01-27T04:37:45;4.57;;;3.20;;
1839;SDS011;920;48.944;9.148;2024-01-27T04:40:12;8.40;;;3.87;;
1839;SDS011;920;48.944;9.148;2024-01-27T04:42:40;5.57;;;3.53;;
1839;SDS011;920;48.944;9.148;2024-01-27T04:45:09;5.83;;;3.07;;
1839;SDS011;920;48.944;9.148;2024-01-27T04:47:36;6.00;;;3.10;;
1839;SDS011;920;48.944;9.148;2024-01-27T04:50:02;7.73;;;3.60;;
1839;SDS011;920;48.944;9.148;2024-01-27T04:52:29;5.80;;;3.30;;
1839;SDS011;920;48.944;9.148;2024-01-27T04:54:56;4.60;;;3.17;;
1839;SDS011;920;48.944;9.148;2024-01-27T04:57:23;5.60;;;3.40;;
1839;SDS011;920;48.944;9.148;2024-01-27T04:59:51;4.30;;;3.37;;
1839;SDS011;920;48.944;9.148;2024-01-27T05:02:18;5.10;;;3.47;;
1839;SDS011;920;48.944;9.148;2024-01-27T05:04:45;8.50;;;4.00;;
1839;SDS011;920;48.944;9.148;2024-01-27T05:07:12;6.20;;;3.50;;
1839;SDS011;920;48.944;9.148;2024-01-27T05:09:39;6.07;;;3.03;;
1839;SDS011;920;48.944;9.148;2024-01-27T05:12:07;5.07;;;3.13;;
1839;SDS011;920;48.944;9.148;2024-01-27T05:14:34;5.60;;;3.60;;
1839;SDS011;920;48.944;9.148;2024-01-27T05:17:02;6.53;;;3.23;;
1839;SDS011;920;48.944;9.148;2024-01-27T05:19:29;6.80;;;3.17;;
1839;SDS011;920;48.944;9.148;2024-01-27T05:21:56;5.87;;;3.30;;
1839;SDS011;920;48.944;9.148;2024-01-27T05:24:23;6.93;;;3.00;;
1839;SDS011;920;48.944;9.148;2024-01-27T05:26:50;4.73;;;2.73;;
1839;SDS011;920;48.944;9.148;2024-01-27T05:29:17;4.87;;;3.50;;
1839;SDS011;920;48.944;9.148;2024-01-27T05:31:44;4.97;;;3.50;;
1839;SDS011;920;48.944;9.148;2024-01-27T05:34:12;4.93;;;3.23;;
1839;SDS011;920;48.944;9.148;2024-01-27T05:36:39;5.30;;;3.10;;
1839;SDS011;920;48.944;9.148;2024-01-27T05:39:06;5.03;;;3.27;;
1839;SDS011;920;48.944;9.148;2024-01-27T05:41:33;5.10;;;3.50;;
1839;SDS011;920;48.944;9.148;2024-01-27T05:44:00;6.00;;;3.50;;
1839;SDS011;920;48.944;9.148;2024-01-27T05:46:27;6.27;;;3.60;;
1839;SDS011;920;48.944;9.148;2024-01-27T05:48:54;6.77;;;4.20;;
1839;SDS011;920;48.944;9.148;2024-01-27T05:51:27;8.47;;;4.07;;
1839;SDS011;920;48.944;9.148;2024-01-27T05:53:55;7.30;;;4.17;;
1839;SDS011;920;48.944;9.148;2024-01-27T05:56:22;5.40;;;3.30;;
1839;SDS011;920;48.944;9.148;2024-01-27T05:58:48;4.70;;;3.20;;
1839;SDS011;920;48.944;9.148;2024-01-27T06:01:17;5.00;;;3.37;;
1839;SDS011;920;48.944;9.148;2024-01-27T06:03:44;6.10;;;4.17;;
1839;SDS011;920;48.944;9.148;2024-01-27T06:06:11;8.40;;;4.87;;
1839;SDS011;920;48.944;9.148;2024-01-27T06:08:39;10.63;;;6.40;;
1839;SDS011;920;48.944;9.148;2024-01-27T06:11:05;8.07;;;5.17;;
1839;SDS011;920;48.944;9.148;2024-01-27T06:13:32;10.73;;;5.37;;
1839;SDS011;920;48.944;9.148;2024-01-27T06:15:59;7.90;;;4.47;;
1839;SDS011;920;48.944;9.148;2024-01-27T06:18:26;8.07;;;4.73;;
1839;SDS011;920;48.944;9.148;2024-01-27T06:20:53;7.57;;;4.13;;
1839;SDS011;920;48.944;9.148;2024-01-27T06:23:20;8.53;;;4.50;;
1839;SDS011;920;48.944;9.148;2024-01-27T06:25:48;8.17;;;4.73;;
1839;SDS011;920;48.944;9.148;2024-01-27T06:28:15;8.03;;;4.60;;
1839;SDS011;920;48.944;9.148;2024-01-27T06:30:43;7.37;;;4.60;;
1839;SDS011;920;48.944;9.148;2024-01-27T06:33:10;7.33;;;4.30;;
1839;SDS011;920;48.944;9.148;2024-01-27T06:35:37;7.63;;;4.40;;
1839;SDS011;920;48.944;9.148;2024-01-27T06:38:04;8.23;;;4.63;;
1839;SDS011;920;48.944;9.148;2024-01-27T06:40:31;6.73;;;4.37;;
1839;SDS011;920;48.944;9.148;2024-01-27T06:42:59;9.13;;;4.73;;
1839;SDS011;920;48.944;9.148;2024-01-27T06:45:26;8.67;;;4.73;;
1839;SDS011;920;48.944;9.148;2024-01-27T06:47:53;9.33;;;4.70;;
1839;SDS011;920;48.944;9.148;2024-01-27T06:50:20;7.20;;;4.17;;
1839;SDS011;920;48.944;9.148;2024-01-27T06:52:48;7.70;;;4.60;;
1839;SDS011;920;48.944;9.148;2024-01-27T06:55:14;6.60;;;4.10;;
1839;SDS011;920;48.944;9.148;2024-01-27T06:57:41;6.70;;;4.17;;
1839;SDS011;920;48.944;9.148;2024-01-27T07:00:10;8.23;;;4.20;;
1839;SDS011;920;48.944;9.148;2024-01-27T07:02:39;5.90;;;4.50;;
1839;SDS011;920;48.944;9.148;2024-01-27T07:05:07;6.47;;;4.20;;
1839;SDS011;920;48.944;9.148;2024-01-27T07:07:34;5.87;;;4.40;;
1839;SDS011;920;48.944;9.148;2024-01-27T07:10:01;6.30;;;4.20;;
1839;SDS011;920;48.944;9.148;2024-01-27T07:12:28;7.70;;;5.20;;
1839;SDS011;920;48.944;9.148;2024-01-27T07:14:55;8.10;;;5.07;;
1839;SDS011;920;48.944;9.148;2024-01-27T07:17:23;4.90;;;4.30;;
1839;SDS011;920;48.944;9.148;2024-01-27T07:19:50;6.90;;;4.40;;
1839;SDS011;920;48.944;9.148;2024-01-27T07:22:17;8.60;;;4.97;;
1839;SDS011;920;48.944;9.148;2024-01-27T07:24:44;6.07;;;4.90;;
1839;SDS011;920;48.944;9.148;2024-01-27T07:27:11;7.50;;;4.80;;
1839;SDS011;920;48.944;9.148;2024-01-27T07:29:39;6.30;;;4.43;;
1839;SDS011;920;48.944;9.148;2024-01-27T07:32:05;6.63;;;4.63;;
1839;SDS011;920;48.944;9.148;2024-01-27T07:34:35;6.97;;;5.00;;
1839;SDS011;920;48.944;9.148;2024-01-27T07:37:01;6.10;;;4.77;;
1839;SDS011;920;48.944;9.148;2024-01-27T07:39:28;6.30;;;4.77;;
1839;SDS011;920;48.944;9.148;2024-01-27T07:41:55;6.50;;;4.60;;
1839;SDS011;920;48.944;9.148;2024-01-27T07:44:22;7.70;;;4.60;;
1839;SDS011;920;48.944;9.148;2024-01-27T07:46:48;7.30;;;4.80;;
1839;SDS011;920;48.944;9.148;2024-01-27T07:49:15;7.80;;;4.73;;
1839;SDS011;920;48.944;9.148;2024-01-27T07:51:45;6.90;;;4.27;;
1839;SDS011;920;48.944;9.148;2024-01-27T07:54:11;7.30;;;4.70;;
1839;SDS011;920;48.944;9.148;2024-01-27T07:56:38;6.20;;;4.37;;
1839;SDS011;920;48.944;9.148;2024-01-27T07:59:06;6.20;;;4.00;;
1839;SDS011;920;48.944;9.148;2024-01-27T08:01:38;7.90;;;4.43;;
1839;SDS011;920;48.944;9.148;2024-01-27T08:04:05;6.63;;;4.27;;
1839;SDS011;920;48.944;9.148;2024-01-27T08:06:32;6.93;;;4.30;;
1839;SDS011;920;48.944;9.148;2024-01-27T08:09:00;7.23;;;4.37;;
1839;SDS011;920;48.944;9.148;2024-01-27T08:11:27;8.23;;;4.97;;
1839;SDS011;920;48.944;9.148;2024-01-27T08:13:54;6.57;;;4.20;;
1839;SDS011;920;48.944;9.148;2024-01-27T08:16:21;6.80;;;4.50;;
1839;SDS011;920;48.944;9.148;2024-01-27T08:18:47;7.57;;;5.00;;
1839;SDS011;920;48.944;9.148;2024-01-27T08:21:14;7.77;;;4.83;;
1839;SDS011;920;48.944;9.148;2024-01-27T08:23:41;7.30;;;5.50;;
1839;SDS011;920;48.944;9.148;2024-01-27T08:26:09;8.23;;;5.00;;
1839;SDS011;920;48.944;9.148;2024-01-27T08:28:36;6.77;;;5.00;;
1839;SDS011;920;48.944;9.148;2024-01-27T08:31:03;6.63;;;5.17;;
1839;SDS011;920;48.944;9.148;2024-01-27T08:33:30;8.37;;;5.50;;
1839;SDS011;920;48.944;9.148;2024-01-27T08:35:56;6.90;;;4.83;;
1839;SDS011;920;48.944;9.148;2024-01-27T08:38:23;6.17;;;4.73;;
1839;SDS011;920;48.944;9.148;2024-01-27T08:40:52;7.70;;;4.57;;
1839;SDS011;920;48.944;9.148;2024-01-27T08:43:21;6.87;;;5.10;;
1839;SDS011;920;48.944;9.148;2024-01-27T08:45:47;6.30;;;5.03;;
1839;SDS011;920;48.944;9.148;2024-01-27T08:48:14;6.80;;;5.30;;
1839;SDS011;920;48.944;9.148;2024-01-27T08:50:41;7.07;;;5.50;;
1839;SDS011;920;48.944;9.148;2024-01-27T08:53:08;6.73;;;5.70;;
1839;SDS011;920;48.944;9.148;2024-01-27T08:55:35;6.63;;;5.43;;
1839;SDS011;920;48.944;9.148;2024-01-27T08:58:02;9.43;;;5.57;;
1839;SDS011;920;48.944;9.148;2024-01-27T09:00:30;8.20;;;5.40;;
1839;SDS011;920;48.944;9.148;2024-01-27T09:02:56;6.90;;;5.30;;
1839;SDS011;920;48.944;9.148;2024-01-27T09:05:23;8.67;;;6.10;;
1839;SDS011;920;48.944;9.148;2024-01-27T09:07:50;8.70;;;5.70;;
1839;SDS011;920;48.944;9.148;2024-01-27T09:10:17;6.30;;;5.20;;
1839;SDS011;920;48.944;9.148;2024-01-27T09:12:44;7.63;;;5.90;;
1839;SDS011;920;48.944;9.148;2024-01-27T09:15:11;7.00;;;5.10;;
1839;SDS011;920;48.944;9.148;2024-01-27T09:17:39;10.40;;;6.07;;
1839;SDS011;920;48.944;9.148;2024-01-27T09:20:08;10.33;;;6.70;;
1839;SDS011;920;48.944;9.148;2024-01-27T09:22:35;8.30;;;5.70;;
1839;SDS011;920;48.944;9.148;2024-01-27T09:25:02;8.20;;;5.70;;
1839;SDS011;920;48.944;9.148;2024-01-27T09:27:29;8.60;;;5.90;;
1839;SDS011;920;48.944;9.148;2024-01-27T09:29:55;7.27;;;5.30;;
1839;SDS011;920;48.944;9.148;2024-01-27T09:32:22;5.60;;;4.53;;
1839;SDS011;920;48.944;9.148;2024-01-27T09:34:50;9.07;;;6.20;;
1839;SDS011;920;48.944;9.148;2024-01-27T09:37:19;7.40;;;5.23;;
1839;SDS011;920;48.944;9.148;2024-01-27T09:39:45;9.67;;;5.20;;
1839;SDS011;920;48.944;9.148;2024-01-27T09:42:12;6.30;;;5.40;;
1839;SDS011;920;48.944;9.148;2024-01-27T09:44:40;7.60;;;5.50;;
1839;SDS011;920;48.944;9.148;2024-01-27T09:47:09;10.90;;;5.20;;
1839;SDS011;920;48.944;9.148;2024-01-27T09:49:38;6.97;;;5.50;;
1839;SDS011;920;48.944;9.148;2024-01-27T09:52:07;6.30;;;5.10;;
1839;SDS011;920;48.944;9.148;2024-01-27T09:54:33;6.80;;;5.60;;
1839;SDS011;920;48.944;9.148;2024-01-27T09:57:01;8.10;;;5.60;;
1839;SDS011;920;48.944;9.148;2024-01-27T09:59:28;7.80;;;6.00;;
1839;SDS011;920;48.944;9.148;2024-01-27T10:01:55;9.20;;;5.50;;
1839;SDS011;920;48.944;9.148;2024-01-27T10:04:23;9.00;;;5.90;;
1839;SDS011;920;48.944;9.148;2024-01-27T10:06:51;7.27;;;5.10;;
1839;SDS011;920;48.944;9.148;2024-01-27T10:09:19;7.67;;;5.40;;
1839;SDS011;920;48.944;9.148;2024-01-27T10:11:46;11.33;;;5.97;;
1839;SDS011;920;48.944;9.148;2024-01-27T10:14:13;9.43;;;5.50;;
1839;SDS011;920;48.944;9.148;2024-01-27T10:16:40;8.00;;;5.30;;
1839;SDS011;920;48.944;9.148;2024-01-27T10:19:08;6.57;;;5.20;;
1839;SDS011;920;48.944;9.148;2024-01-27T10:21:38;6.07;;;5.03;;
1839;SDS011;920;48.944;9.148;2024-01-27T10:24:05;7.53;;;5.13;;
1839;SDS011;920;48.944;9.148;2024-01-27T10:26:34;9.87;;;5.67;;
1839;SDS011;920;48.944;9.148;2024-01-27T10:29:01;8.13;;;5.73;;
1839;SDS011;920;48.944;9.148;2024-01-27T10:31:28;10.47;;;5.00;;
1839;SDS011;920;48.944;9.148;2024-01-27T10:33:55;8.30;;;5.07;;
1839;SDS011;920;48.944;9.148;2024-01-27T10:36:23;7.93;;;5.17;;
1839;SDS011;920;48.944;9.148;2024-01-27T10:38:51;8.47;;;5.00;;
1839;SDS011;920;48.944;9.148;2024-01-27T10:41:20;6.13;;;4.97;;
1839;SDS011;920;48.944;9.148;2024-01-27T10:43:49;6.80;;;4.43;;
1839;SDS011;920;48.944;9.148;2024-01-27T10:46:16;6.90;;;4.90;;
1839;SDS011;920;48.944;9.148;2024-01-27T10:48:45;9.90;;;5.50;;
1839;SDS011;920;48.944;9.148;2024-01-27T10:51:16;8.77;;;5.77;;
1839;SDS011;920;48.944;9.148;2024-01-27T10:53:47;7.90;;;5.70;;
1839;SDS011;920;48.944;9.148;2024-01-27T10:56:15;9.07;;;6.63;;
1839;SDS011;920;48.944;9.148;2024-01-27T10:58:43;10.87;;;6.40;;
1839;SDS011;920;48.944;9.148;2024-01-27T11:01:13;9.90;;;6.53;;
1839;SDS011;920;48.944;9.148;2024-01-27T11:03:40;10.37;;;5.90;;
1839;SDS011;920;48.944;9.148;2024-01-27T11:06:07;8.33;;;5.60;;
1839;SDS011;920;48.944;9.148;2024-01-27T11:08:34;11.00;;;6.20;;
1839;SDS011;920;48.944;9.148;2024-01-27T11:11:01;9.03;;;5.27;;
1839;SDS011;920;48.944;9.148;2024-01-27T11:13:28;8.40;;;6.03;;
1839;SDS011;920;48.944;9.148;2024-01-27T11:15:56;9.13;;;5.43;;
1839;SDS011;920;48.944;9.148;2024-01-27T11:18:26;6.50;;;4.90;;
1839;SDS011;920;48.944;9.148;2024-01-27T11:20:53;10.07;;;4.77;;
1839;SDS011;920;48.944;9.148;2024-01-27T11:23:20;5.70;;;4.57;;
1839;SDS011;920;48.944;9.148;2024-01-27T11:25:46;5.90;;;4.10;;
1839;SDS011;920;48.944;9.148;2024-01-27T11:28:14;6.83;;;4.77;;
1839;SDS011;920;48.944;9.148;2024-01-27T11:30:44;7.10;;;4.13;;
1839;SDS011;920;48.944;9.148;2024-01-27T11:33:12;9.43;;;3.90;;
1839;SDS011;920;48.944;9.148;2024-01-27T11:35:40;6.90;;;4.10;;
1839;SDS011;920;48.944;9.148;2024-01-27T11:38:07;6.43;;;4.17;;
1839;SDS011;920;48.944;9.148;2024-01-27T11:40:44;8.87;;;4.67;;
1839;SDS011;920;48.944;9.148;2024-01-27T11:43:11;7.27;;;4.17;;
1839;SDS011;920;48.944;9.148;2024-01-27T11:45:39;10.63;;;4.43;;
1839;SDS011;920;48.944;9.148;2024-01-27T11:48:06;6.40;;;4.07;;
1839;SDS011;920;48.944;9.148;2024-01-27T11:50:33;6.90;;;4.80;;
1839;SDS011;920;48.944;9.148;2024-01-27T11:53:01;7.03;;;4.40;;
1839;SDS011;920;48.944;9.148;2024-01-27T11:55:27;6.80;;;4.47;;
1839;SDS011;920;48.944;9.148;2024-01-27T11:57:54;7.00;;;4.10;;
1839;SDS011;920;48.944;9.148;2024-01-27T12:00:21;5.27;;;4.37;;
1839;SDS011;920;48.944;9.148;2024-01-27T12:02:50;6.67;;;4.60;;
1839;SDS011;920;48.944;9.148;2024-01-27T12:05:17;6.30;;;4.37;;
1839;SDS011;920;48.944;9.148;2024-01-27T12:07:44;8.00;;;4.20;;
1839;SDS011;920;48.944;9.148;2024-01-27T12:10:13;5.67;;;3.33;;
1839;SDS011;920;48.944;9.148;2024-01-27T12:12:39;6.10;;;3.53;;
1839;SDS011;920;48.944;9.148;2024-01-27T12:15:06;6.40;;;3.00;;
1839;SDS011;920;48.944;9.148;2024-01-27T12:17:34;7.37;;;2.90;;
1839;SDS011;920;48.944;9.148;2024-01-27T12:20:00;7.10;;;3.20;;
1839;SDS011;920;48.944;9.148;2024-01-27T12:22:28;5.50;;;3.50;;
1839;SDS011;920;48.944;9.148;2024-01-27T12:24:56;8.03;;;3.50;;
1839;SDS011;920;48.944;9.148;2024-01-27T12:27:36;8.17;;;4.40;;
1839;SDS011;920;48.944;9.148;2024-01-27T12:30:03;9.47;;;3.50;;
1839;SDS011;920;48.944;9.148;2024-01-27T12:32:30;7.07;;;3.20;;
1839;SDS011;920;48.944;9.148;2024-01-27T12:34:57;6.77;;;3.50;;
1839;SDS011;920;48.944;9.148;2024-01-27T12:37:25;6.90;;;4.10;;
1839;SDS011;920;48.944;9.148;2024-01-27T12:39:52;9.77;;;4.73;;
1839;SDS011;920;48.944;9.148;2024-01-27T12:42:19;7.67;;;4.20;;
1839;SDS011;920;48.944;9.148;2024-01-27T12:44:47;6.90;;;3.60;;
1839;SDS011;920;48.944;9.148;2024-01-27T12:47:14;5.03;;;3.60;;
1839;SDS011;920;48.944;9.148;2024-01-27T12:49:41;5.73;;;3.53;;
1839;SDS011;920;48.944;9.148;2024-01-27T12:52:07;7.80;;;4.40;;
1839;SDS011;920;48.944;9.148;2024-01-27T12:54:34;7.77;;;4.33;;
1839;SDS011;920;48.944;9.148;2024-01-27T12:57:01;6.93;;;4.07;;
1839;SDS011;920;48.944;9.148;2024-01-27T12:59:28;5.40;;;3.30;;
1839;SDS011;920;48.944;9.148;2024-01-27T13:01:56;4.90;;;3.40;;
1839;SDS011;920;48.944;9.148;2024-01-27T13:04:23;4.97;;;3.20;;
1839;SDS011;920;48.944;9.148;2024-01-27T13:06:50;5.23;;;3.60;;
1839;SDS011;920;48.944;9.148;2024-01-27T13:09:17;6.73;;;4.10;;
1839;SDS011;920;48.944;9.148;2024-01-27T13:11:45;7.03;;;4.73;;
1839;SDS011;920;48.944;9.148;2024-01-27T13:14:12;7.03;;;4.03;;
1839;SDS011;920;48.944;9.148;2024-01-27T13:16:39;5.03;;;3.70;;
1839;SDS011;920;48.944;9.148;2024-01-27T13:19:07;8.00;;;3.47;;
1839;SDS011;920;48.944;9.148;2024-01-27T13:21:34;6.43;;;3.30;;
1839;SDS011;920;48.944;9.148;2024-01-27T13:24:01;5.73;;;3.27;;
1839;SDS011;920;48.944;9.148;2024-01-27T13:26:28;5.80;;;3.90;;
1839;SDS011;920;48.944;9.148;2024-01-27T13:28:57;4.53;;;3.20;;
1839;SDS011;920;48.944;9.148;2024-01-27T13:31:24;5.30;;;3.03;;
1839;SDS011;920;48.944;9.148;2024-01-27T13:33:51;5.00;;;3.10;;
1839;SDS011;920;48.944;9.148;2024-01-27T13:36:19;5.70;;;3.50;;
1839;SDS011;920;48.944;9.148;2024-01-27T13:38:46;6.07;;;3.73;;
1839;SDS011;920;48.944;9.148;2024-01-27T13:41:13;5.77;;;3.60;;
1839;SDS011;920;48.944;9.148;2024-01-27T13:43:40;6.07;;;3.70;;
1839;SDS011;920;48.944;9.148;2024-01-27T13:46:07;5.00;;;3.07;;
1839;SDS011;920;48.944;9.148;2024-01-27T13:48:34;5.93;;;3.40;;
1839;SDS011;920;48.944;9.148;2024-01-27T13:51:00;5.20;;;3.63;;
1839;SDS011;920;48.944;9.148;2024-01-27T13:53:29;8.90;;;3.50;;
1839;SDS011;920;48.944;9.148;2024-01-27T13:55:55;6.93;;;4.10;;
1839;SDS011;920;48.944;9.148;2024-01-27T13:58:22;7.43;;;4.00;;
1839;SDS011;920;48.944;9.148;2024-01-27T14:00:49;6.60;;;3.50;;
1839;SDS011;920;48.944;9.148;2024-01-27T14:03:16;8.03;;;4.50;;
1839;SDS011;920;48.944;9.148;2024-01-27T14:05:42;8.07;;;3.87;;
1839;SDS011;920;48.944;9.148;2024-01-27T14:08:11;6.77;;;3.50;;
1839;SDS011;920;48.944;9.148;2024-01-27T14:10:40;4.43;;;3.10;;
1839;SDS011;920;48.944;9.148;2024-01-27T14:13:08;6.87;;;3.60;;
1839;SDS011;920;48.944;9.148;2024-01-27T14:15:35;4.83;;;3.20;;
1839;SDS011;920;48.944;9.148;2024-01-27T14:18:02;4.17;;;3.20;;
1839;SDS011;920;48.944;9.148;2024-01-27T14:20:29;6.70;;;3.80;;
1839;SDS011;920;48.944;9.148;2024-01-27T14:22:57;7.07;;;3.33;;
1839;SDS011;920;48.944;9.148;2024-01-27T14:25:24;7.13;;;3.40;;
1839;SDS011;920;48.944;9.148;2024-01-27T14:27:52;7.07;;;3.83;;
1839;SDS011;920;48.944;9.148;2024-01-27T14:30:20;6.90;;;3.47;;
1839;SDS011;920;48.944;9.148;2024-01-27T14:32:48;7.27;;;3.83;;
1839;SDS011;920;48.944;9.148;2024-01-27T14:35:15;6.17;;;3.60;;
1839;SDS011;920;48.944;9.148;2024-01-27T14:37:41;5.93;;;3.90;;
1839;SDS011;920;48.944;9.148;2024-01-27T14:40:09;5.20;;;3.40;;
1839;SDS011;920;48.944;9.148;2024-01-27T14:42:38;6.33;;;3.63;;
1839;SDS011;920;48.944;9.148;2024-01-27T14:45:08;5.30;;;3.47;;
1839;SDS011;920;48.944;9.148;2024-01-27T14:47:35;4.97;;;3.20;;
1839;SDS011;920;48.944;9.148;2024-01-27T14:50:02;5.23;;;3.80;;
1839;SDS011;920;48.944;9.148;2024-01-27T14:52:31;5.70;;;4.03;;
1839;SDS011;920;48.944;9.148;2024-01-27T14:54:58;7.23;;;3.87;;
1839;SDS011;920;48.944;9.148;2024-01-27T14:57:25;7.17;;;3.80;;
1839;SDS011;920;48.944;9.148;2024-01-27T14:59:52;7.67;;;4.03;;
1839;SDS011;920;48.944;9.148;2024-01-27T15:02:20;7.17;;;4.50;;
1839;SDS011;920;48.944;9.148;2024-01-27T15:04:47;5.60;;;3.80;;
1839;SDS011;920;48.944;9.148;2024-01-27T15:07:13;5.73;;;3.90;;
1839;SDS011;920;48.944;9.148;2024-01-27T15:09:41;6.10;;;3.83;;
1839;SDS011;920;48.944;9.148;2024-01-27T15:12:08;6.33;;;3.77;;
1839;SDS011;920;48.944;9.148;2024-01-27T15:14:35;10.93;;;3.63;;
1839;SDS011;920;48.944;9.148;2024-01-27T15:17:01;6.57;;;3.97;;
1839;SDS011;920;48.944;9.148;2024-01-27T15:19:29;6.97;;;3.60;;
1839;SDS011;920;48.944;9.148;2024-01-27T15:21:56;9.00;;;4.87;;
1839;SDS011;920;48.944;9.148;2024-01-27T15:24:23;6.20;;;3.50;;
1839;SDS011;920;48.944;9.148;2024-01-27T15:26:50;6.23;;;3.53;;
1839;SDS011;920;48.944;9.148;2024-01-27T15:29:18;7.80;;;4.23;;